createdAt,value
2022-08-18T00:04:49.661Z,20.1
2022-08-18T00:09:57.801Z,20.1
2022-08-18T00:15:01.182Z,20.1
2022-08-18T00:20:07.584Z,20.1
2022-08-18T00:25:15.522Z,20.1
2022-08-18T00:30:21.946Z,20.1
2022-08-18T00:35:29.104Z,20.1
2022-08-18T00:40:37.952Z,20.2
2022-08-18T00:48:29.489Z,20.2
2022-08-18T00:51:11.661Z,20.2
2022-08-18T00:56:18.032Z,20.2
2022-08-18T01:01:04.436Z,20.2
2022-08-18T01:06:06.728Z,20.2
2022-08-18T01:11:14.670Z,20.2
2022-08-18T01:16:25.053Z,20.3
2022-08-18T01:21:27.417Z,20.3
2022-08-18T01:26:33.888Z,20.3
2022-08-18T01:31:54.340Z,20.3
2022-08-18T01:36:48.301Z,20.3
2022-08-18T01:41:54.762Z,20.3
2022-08-18T01:46:51.056Z,20.3
2022-08-18T01:52:33.063Z,20.3
2022-08-18T01:57:15.502Z,20.3
2022-08-18T02:02:23.389Z,20.3
2022-08-18T02:07:34.362Z,20.2
2022-08-18T02:12:36.079Z,20.3
2022-08-18T02:17:42.446Z,20.2
2022-08-18T02:22:50.392Z,20.2
2022-08-18T02:27:56.757Z,20.2
2022-08-18T02:33:03.143Z,20.2
2022-08-18T02:38:09.540Z,20.2
2022-08-18T02:43:17.504Z,20.2
2022-08-18T02:48:27.884Z,20.2
2022-08-18T02:53:31.842Z,20.2
2022-08-18T02:58:38.234Z,20.2
2022-08-18T03:03:44.611Z,20.2
2022-08-18T03:08:50.988Z,20.2
2022-08-18T03:13:58.953Z,20.2
2022-08-18T03:19:05.454Z,20.2
2022-08-18T03:24:11.841Z,20.2
2022-08-18T03:29:18.214Z,20.2
2022-08-18T03:34:24.598Z,20.1
2022-08-18T03:39:30.983Z,20.1
2022-08-18T03:44:37.384Z,20.1
2022-08-18T03:49:47.719Z,20.1
2022-08-18T03:54:54.090Z,20.1
2022-08-18T03:59:56.502Z,20.1
2022-08-18T04:05:02.869Z,20.1
2022-08-18T04:10:16.252Z,20.1
2022-08-18T04:15:15.699Z,20.1
2022-08-18T04:20:26.069Z,20.1
2022-08-18T04:25:33.137Z,20.1
2022-08-18T04:30:24.803Z,20.0
2022-08-18T04:35:41.766Z,20.0
2022-08-18T04:40:49.135Z,20.1
2022-08-18T04:51:01.888Z,20.0
2022-08-18T04:56:08.274Z,20.0
2022-08-18T05:01:38.796Z,20.0
2022-08-18T05:06:25.052Z,20.0
2022-08-18T05:11:31.526Z,20.0
2022-08-18T05:16:33.929Z,20.0
2022-08-18T05:21:40.318Z,20.0
2022-08-18T05:26:50.670Z,20.1
2022-08-18T05:31:54.812Z,20.0
2022-08-18T05:37:01.248Z,20.1
2022-08-18T05:42:07.564Z,20.1
2022-08-18T05:47:13.937Z,20.1
2022-08-18T05:52:21.945Z,20.1
2022-08-18T05:57:32.309Z,20.2
2022-08-18T06:02:34.744Z,20.3
2022-08-18T06:07:41.134Z,20.3
2022-08-18T06:12:51.290Z,20.4
2022-08-18T06:18:01.678Z,20.5
2022-08-18T06:23:29.863Z,20.6
2022-08-18T06:28:12.191Z,20.6
2022-08-18T06:33:18.576Z,20.7
2022-08-18T06:38:28.955Z,20.7
2022-08-18T06:43:35.330Z,20.8
2022-08-18T06:48:37.749Z,20.8
2022-08-18T06:53:44.129Z,20.8
2022-08-18T06:58:53.219Z,20.8
2022-08-18T07:03:56.996Z,20.8
2022-08-18T07:09:03.377Z,20.8
2022-08-18T07:14:16.479Z,20.8
2022-08-18T07:19:16.132Z,20.8
2022-08-18T07:24:25.382Z,20.8
2022-08-18T07:29:28.870Z,20.8
2022-08-18T07:34:36.795Z,20.9
2022-08-18T07:39:44.095Z,20.8
2022-08-18T07:45:15.184Z,20.9
2022-08-18T07:50:55.077Z,20.9
2022-08-18T07:55:03.883Z,20.9
2022-08-18T08:00:10.464Z,21.0
2022-08-18T08:05:16.744Z,21.1
2022-08-18T08:11:01.773Z,21.3
2022-08-18T08:21:19.586Z,21.4
2022-08-18T08:26:21.961Z,21.5
2022-08-18T08:31:52.395Z,21.5
2022-08-18T08:36:24.708Z,21.6
2022-08-18T08:41:31.096Z,21.6
2022-08-18T08:46:47.495Z,21.6
2022-08-18T08:51:43.909Z,21.7
2022-08-18T08:57:00.481Z,21.8
2022-08-18T09:03:18.958Z,21.8
2022-08-18T09:12:18.578Z,22.0
2022-08-18T09:17:15.959Z,22.1
2022-08-18T09:22:32.393Z,22.3
2022-08-18T09:28:00.138Z,22.4
2022-08-18T09:32:45.193Z,22.5
2022-08-18T09:37:55.634Z,22.6
2022-08-18T09:47:54.407Z,22.9
2022-08-18T09:54:21.177Z,23.3
2022-08-18T09:59:27.329Z,23.4
2022-08-18T10:04:33.772Z,23.7
2022-08-18T10:09:40.657Z,24.1
2022-08-18T10:14:46.536Z,24.3
2022-08-18T10:19:52.905Z,24.5
2022-08-18T10:25:09.207Z,24.6
2022-08-18T10:30:05.765Z,24.6
2022-08-18T10:35:02.301Z,24.6
2022-08-18T10:40:08.720Z,24.7
2022-08-18T10:46:22.982Z,24.7
2022-08-18T10:50:21.426Z,24.7
2022-08-18T10:55:57.891Z,24.7
2022-08-18T11:00:44.211Z,24.8
2022-08-18T11:05:40.578Z,25.0
2022-08-18T11:16:03.362Z,25.9
2022-08-18T11:26:07.669Z,27.3
2022-08-18T11:31:24.166Z,27.8
2022-08-18T11:36:20.523Z,28.2
2022-08-18T11:41:48.222Z,28.5
2022-08-18T11:46:57.342Z,28.9
2022-08-18T11:51:49.704Z,29.2
2022-08-18T11:56:56.110Z,29.6
2022-08-18T12:02:02.498Z,29.9
2022-08-18T12:07:12.948Z,30.2
2022-08-18T12:17:55.831Z,30.8
2022-08-18T12:23:27.251Z,30.7
2022-08-18T12:27:59.745Z,30.9
2022-08-18T12:33:16.160Z,30.9
2022-08-18T12:43:32.276Z,31.0
2022-08-18T12:48:35.097Z,31.0
2022-08-18T12:53:58.144Z,31.0
2022-08-18T12:58:47.926Z,30.9
2022-08-18T13:03:44.384Z,30.8
2022-08-18T13:09:00.790Z,30.7
2022-08-18T13:13:57.365Z,30.7
2022-08-18T13:19:13.552Z,30.6
2022-08-18T13:24:21.936Z,30.5
2022-08-18T13:39:39.346Z,30.3
2022-08-18T13:44:52.944Z,30.3
2022-08-18T13:50:16.086Z,30.3
2022-08-18T13:54:58.419Z,30.2
2022-08-18T14:00:29.623Z,30.2
2022-08-18T14:05:11.333Z,30.2
2022-08-18T14:10:41.795Z,30.1
2022-08-18T14:15:24.107Z,30.1
2022-08-18T14:20:30.488Z,30.0
2022-08-18T14:25:36.862Z,29.9
2022-08-18T14:30:44.275Z,29.8
2022-08-18T14:36:05.764Z,29.7
2022-08-18T14:41:00.034Z,29.6
2022-08-18T14:46:02.471Z,29.5
2022-08-18T14:51:07.863Z,29.5
2022-08-18T14:57:15.445Z,29.6
2022-08-18T15:01:21.652Z,29.5
2022-08-18T15:06:28.009Z,29.5
2022-08-18T15:11:24.474Z,29.4
2022-08-18T15:16:40.873Z,29.3
2022-08-18T15:21:47.252Z,29.3
2022-08-18T15:26:57.453Z,29.2
2022-08-18T15:31:50.493Z,29.1
2022-08-18T15:37:09.530Z,29.1
2022-08-18T15:42:12.969Z,29.0
2022-08-18T15:47:20.707Z,28.9
2022-08-18T15:57:39.116Z,28.7
2022-08-18T16:02:38.919Z,28.6
2022-08-18T16:07:45.228Z,28.6
2022-08-18T16:14:06.780Z,28.5
2022-08-18T16:18:03.275Z,28.5
2022-08-18T16:23:09.648Z,28.4
2022-08-18T16:28:53.112Z,28.2
2022-08-18T16:34:20.535Z,28.3
2022-08-18T16:39:06.866Z,28.2
2022-08-18T16:44:13.369Z,28.2
2022-08-18T16:49:09.737Z,28.2
2022-08-18T16:54:25.129Z,28.2
2022-08-18T16:59:32.539Z,28.2
2022-08-18T17:04:58.975Z,28.2
2022-08-18T17:09:45.408Z,28.1
2022-08-18T17:14:52.236Z,28.1
2022-08-18T17:19:58.174Z,28.1
2022-08-18T17:25:04.653Z,27.9
2022-08-18T17:30:01.028Z,27.9
2022-08-18T17:35:17.424Z,27.7
2022-08-18T17:40:23.797Z,27.6
2022-08-18T17:45:30.176Z,27.4
2022-08-18T17:50:36.593Z,27.3
2022-08-18T17:57:15.149Z,27.1
2022-08-18T18:06:15.751Z,26.8
2022-08-18T18:11:05.115Z,26.6
2022-08-18T18:16:07.474Z,26.5
2022-08-18T18:22:00.937Z,26.3
2022-08-18T18:27:14.486Z,26.2
2022-08-18T18:31:32.792Z,26.0
2022-08-18T18:41:45.675Z,25.6
2022-08-18T18:46:52.087Z,25.5
2022-08-18T18:51:58.464Z,25.3
2022-08-18T18:57:04.854Z,25.1
2022-08-18T19:02:13.599Z,25.0
2022-08-18T19:07:41.716Z,24.8
2022-08-18T19:17:30.453Z,24.5
2022-08-18T19:22:36.832Z,24.3
2022-08-18T19:28:07.490Z,24.2
2022-08-18T19:33:13.849Z,24.0
2022-08-18T19:38:20.244Z,23.9
2022-08-18T19:43:02.613Z,23.7
2022-08-18T19:48:09.007Z,23.6
2022-08-18T19:53:15.490Z,23.4
2022-08-18T19:58:21.882Z,23.3
2022-08-18T20:03:18.220Z,23.1
2022-08-18T20:08:24.613Z,23.0
2022-08-18T20:13:30.992Z,22.9
2022-08-18T20:18:37.376Z,22.8
2022-08-18T20:23:43.873Z,22.6
2022-08-18T20:29:00.356Z,22.5
2022-08-18T20:34:09.203Z,22.4
2022-08-18T20:39:13.313Z,22.3
2022-08-18T20:44:28.937Z,22.1
2022-08-18T20:49:26.091Z,22.1
2022-08-18T20:54:32.474Z,21.9
2022-08-18T21:05:05.299Z,21.7
2022-08-18T21:09:51.646Z,21.6
2022-08-18T21:14:58.024Z,21.5
2022-08-18T21:20:04.408Z,21.4
2022-08-18T21:25:34.845Z,21.3
2022-08-18T21:30:17.296Z,21.2
2022-08-18T21:35:23.783Z,21.1
2022-08-18T21:40:54.212Z,21.0
2022-08-18T21:45:36.538Z,21.0
2022-08-18T21:50:42.927Z,20.9
2022-08-18T21:55:49.311Z,20.8
2022-08-18T22:00:55.829Z,20.7
2022-08-18T22:06:02.191Z,20.6
2022-08-18T22:11:10.145Z,20.5
2022-08-18T22:16:40.583Z,20.4
2022-08-18T22:21:22.915Z,20.4
2022-08-18T22:26:29.279Z,20.3
2022-08-18T22:31:35.668Z,20.2
2022-08-18T22:37:06.105Z,20.1
2022-08-18T22:42:32.517Z,20.1
2022-08-18T22:46:54.816Z,20.0
2022-08-18T22:52:21.380Z,19.9
2022-08-18T22:57:31.844Z,19.8
2022-08-18T23:02:04.249Z,19.7
2022-08-18T23:07:20.652Z,19.7
2022-08-18T23:13:12.129Z,19.5
2022-08-18T23:18:19.539Z,19.5
2022-08-18T23:23:49.945Z,19.5
2022-08-18T23:28:22.289Z,19.4
2022-08-18T23:33:38.744Z,19.3
2022-08-18T23:38:45.232Z,19.2
2022-08-18T23:43:51.615Z,19.1
2022-08-18T23:48:57.988Z,19.1
2022-08-18T23:53:54.353Z,19.0
2022-08-18T23:59:10.907Z,18.9
